sensor_id;sensor_type;location;lat;lon;timestamp;P1;durP1;ratioP1;P2;durP2;ratioP2
35306;SDS011;21420;52.196;21.416;2023-09-07T00:00:49;19.70;;;12.90;;
35306;SDS011;21420;52.196;21.416;2023-09-07T00:03:16;23.70;;;13.50;;
35306;SDS011;21420;52.196;21.416;2023-09-07T00:05:43;25.00;;;14.00;;
35306;SDS011;21420;52.196;21.416;2023-09-07T00:08:09;17.50;;;13.10;;
35306;SDS011;21420;52.196;21.416;2023-09-07T00:10:36;20.90;;;11.50;;
35306;SDS011;21420;52.196;21.416;2023-09-07T00:13:03;23.80;;;13.40;;
35306;SDS011;21420;52.196;21.416;2023-09-07T00:15:32;21.30;;;12.80;;
35306;SDS011;21420;52.196;21.416;2023-09-07T00:18:03;19.90;;;11.30;;
35306;SDS011;21420;52.196;21.416;2023-09-07T00:20:30;19.90;;;11.80;;
35306;SDS011;21420;52.196;21.416;2023-09-07T00:22:56;23.70;;;12.30;;
35306;SDS011;21420;52.196;21.416;2023-09-07T00:25:23;26.40;;;13.90;;
35306;SDS011;21420;52.196;21.416;2023-09-07T00:27:50;21.40;;;12.80;;
35306;SDS011;21420;52.196;21.416;2023-09-07T00:30:19;25.00;;;13.30;;
35306;SDS011;21420;52.196;21.416;2023-09-07T00:32:46;27.90;;;15.40;;
35306;SDS011;21420;52.196;21.416;2023-09-07T00:35:13;28.30;;;13.30;;
35306;SDS011;21420;52.196;21.416;2023-09-07T00:37:39;25.60;;;14.10;;
35306;SDS011;21420;52.196;21.416;2023-09-07T00:40:06;24.40;;;13.00;;
35306;SDS011;21420;52.196;21.416;2023-09-07T00:42:36;20.50;;;12.60;;
35306;SDS011;21420;52.196;21.416;2023-09-07T00:45:03;25.50;;;12.70;;
35306;SDS011;21420;52.196;21.416;2023-09-07T00:47:31;28.30;;;12.70;;
35306;SDS011;21420;52.196;21.416;2023-09-07T00:50:06;27.80;;;12.70;;
35306;SDS011;21420;52.196;21.416;2023-09-07T00:52:33;19.00;;;11.80;;
35306;SDS011;21420;52.196;21.416;2023-09-07T00:55:01;20.50;;;12.20;;
35306;SDS011;21420;52.196;21.416;2023-09-07T00:57:31;26.70;;;12.70;;
35306;SDS011;21420;52.196;21.416;2023-09-07T00:59:58;27.70;;;12.40;;
35306;SDS011;21420;52.196;21.416;2023-09-07T01:02:25;22.70;;;12.10;;
35306;SDS011;21420;52.196;21.416;2023-09-07T01:04:52;27.40;;;12.50;;
35306;SDS011;21420;52.196;21.416;2023-09-07T01:07:29;19.80;;;12.20;;
35306;SDS011;21420;52.196;21.416;2023-09-07T01:10:02;25.20;;;12.30;;
35306;SDS011;21420;52.196;21.416;2023-09-07T01:12:30;18.60;;;12.60;;
35306;SDS011;21420;52.196;21.416;2023-09-07T01:14:57;22.80;;;12.60;;
35306;SDS011;21420;52.196;21.416;2023-09-07T01:17:25;23.40;;;12.50;;
35306;SDS011;21420;52.196;21.416;2023-09-07T01:19:52;22.00;;;12.60;;
35306;SDS011;21420;52.196;21.416;2023-09-07T01:22:19;22.10;;;12.30;;
35306;SDS011;21420;52.196;21.416;2023-09-07T01:24:50;19.10;;;11.70;;
35306;SDS011;21420;52.196;21.416;2023-09-07T01:27:21;18.80;;;12.40;;
35306;SDS011;21420;52.196;21.416;2023-09-07T01:29:48;17.60;;;11.00;;
35306;SDS011;21420;52.196;21.416;2023-09-07T01:32:14;17.30;;;11.60;;
35306;SDS011;21420;52.196;21.416;2023-09-07T01:34:41;20.40;;;12.40;;
35306;SDS011;21420;52.196;21.416;2023-09-07T01:37:08;20.30;;;11.70;;
35306;SDS011;21420;52.196;21.416;2023-09-07T01:39:35;14.90;;;11.70;;
35306;SDS011;21420;52.196;21.416;2023-09-07T01:42:03;15.90;;;10.90;;
35306;SDS011;21420;52.196;21.416;2023-09-07T01:44:30;17.50;;;10.80;;
35306;SDS011;21420;52.196;21.416;2023-09-07T01:46:57;18.70;;;11.50;;
35306;SDS011;21420;52.196;21.416;2023-09-07T01:49:24;17.00;;;11.80;;
35306;SDS011;21420;52.196;21.416;2023-09-07T01:51:51;12.90;;;10.60;;
35306;SDS011;21420;52.196;21.416;2023-09-07T01:54:20;15.60;;;10.50;;
35306;SDS011;21420;52.196;21.416;2023-09-07T01:56:47;14.30;;;10.70;;
35306;SDS011;21420;52.196;21.416;2023-09-07T01:59:14;18.50;;;11.70;;
35306;SDS011;21420;52.196;21.416;2023-09-07T02:01:41;17.30;;;10.90;;
35306;SDS011;21420;52.196;21.416;2023-09-07T02:04:07;14.70;;;10.60;;
35306;SDS011;21420;52.196;21.416;2023-09-07T02:06:34;16.20;;;11.20;;
35306;SDS011;21420;52.196;21.416;2023-09-07T02:09:01;16.10;;;10.90;;
35306;SDS011;21420;52.196;21.416;2023-09-07T02:11:28;17.10;;;10.20;;
35306;SDS011;21420;52.196;21.416;2023-09-07T02:13:55;16.80;;;11.30;;
35306;SDS011;21420;52.196;21.416;2023-09-07T02:16:54;16.90;;;11.30;;
35306;SDS011;21420;52.196;21.416;2023-09-07T02:19:21;14.40;;;9.70;;
35306;SDS011;21420;52.196;21.416;2023-09-07T02:21:49;14.60;;;10.70;;
35306;SDS011;21420;52.196;21.416;2023-09-07T02:24:18;16.50;;;10.30;;
35306;SDS011;21420;52.196;21.416;2023-09-07T02:26:44;14.20;;;10.90;;
35306;SDS011;21420;52.196;21.416;2023-09-07T02:29:12;12.50;;;10.30;;
35306;SDS011;21420;52.196;21.416;2023-09-07T02:31:40;11.90;;;10.40;;
35306;SDS011;21420;52.196;21.416;2023-09-07T02:34:07;15.40;;;10.60;;
35306;SDS011;21420;52.196;21.416;2023-09-07T02:36:34;19.00;;;9.90;;
35306;SDS011;21420;52.196;21.416;2023-09-07T02:39:03;18.50;;;11.50;;
35306;SDS011;21420;52.196;21.416;2023-09-07T02:41:30;14.40;;;11.00;;
35306;SDS011;21420;52.196;21.416;2023-09-07T02:43:58;15.20;;;10.70;;
35306;SDS011;21420;52.196;21.416;2023-09-07T02:46:25;13.80;;;10.40;;
35306;SDS011;21420;52.196;21.416;2023-09-07T02:48:52;15.90;;;10.30;;
35306;SDS011;21420;52.196;21.416;2023-09-07T02:51:21;15.30;;;11.20;;
35306;SDS011;21420;52.196;21.416;2023-09-07T02:53:48;14.50;;;10.10;;
35306;SDS011;21420;52.196;21.416;2023-09-07T02:56:15;16.50;;;11.10;;
35306;SDS011;21420;52.196;21.416;2023-09-07T02:58:42;16.40;;;10.70;;
35306;SDS011;21420;52.196;21.416;2023-09-07T03:01:09;14.40;;;9.40;;
35306;SDS011;21420;52.196;21.416;2023-09-07T03:03:35;16.30;;;9.40;;
35306;SDS011;21420;52.196;21.416;2023-09-07T03:06:10;13.90;;;10.00;;
35306;SDS011;21420;52.196;21.416;2023-09-07T03:08:39;17.90;;;9.70;;
35306;SDS011;21420;52.196;21.416;2023-09-07T03:11:07;12.30;;;9.40;;
35306;SDS011;21420;52.196;21.416;2023-09-07T03:13:35;15.70;;;9.20;;
35306;SDS011;21420;52.196;21.416;2023-09-07T03:16:02;12.90;;;9.60;;
35306;SDS011;21420;52.196;21.416;2023-09-07T03:18:30;14.60;;;9.50;;
35306;SDS011;21420;52.196;21.416;2023-09-07T03:20:59;15.40;;;10.00;;
35306;SDS011;21420;52.196;21.416;2023-09-07T03:23:28;14.10;;;9.50;;
35306;SDS011;21420;52.196;21.416;2023-09-07T03:25:56;14.20;;;10.00;;
35306;SDS011;21420;52.196;21.416;2023-09-07T03:28:24;15.40;;;11.40;;
35306;SDS011;21420;52.196;21.416;2023-09-07T03:30:53;13.40;;;10.70;;
35306;SDS011;21420;52.196;21.416;2023-09-07T03:33:22;21.50;;;10.90;;
35306;SDS011;21420;52.196;21.416;2023-09-07T03:35:49;15.90;;;11.50;;
35306;SDS011;21420;52.196;21.416;2023-09-07T03:38:18;17.50;;;10.90;;
35306;SDS011;21420;52.196;21.416;2023-09-07T03:40:45;20.90;;;11.10;;
35306;SDS011;21420;52.196;21.416;2023-09-07T03:43:12;18.00;;;11.70;;
35306;SDS011;21420;52.196;21.416;2023-09-07T03:45:39;19.20;;;11.40;;
35306;SDS011;21420;52.196;21.416;2023-09-07T03:48:05;16.70;;;11.30;;
35306;SDS011;21420;52.196;21.416;2023-09-07T03:50:33;16.10;;;10.70;;
35306;SDS011;21420;52.196;21.416;2023-09-07T03:52:59;12.90;;;9.50;;
35306;SDS011;21420;52.196;21.416;2023-09-07T03:55:26;19.10;;;11.50;;
35306;SDS011;21420;52.196;21.416;2023-09-07T03:57:53;16.10;;;11.40;;
35306;SDS011;21420;52.196;21.416;2023-09-07T04:00:21;14.40;;;10.40;;
35306;SDS011;21420;52.196;21.416;2023-09-07T04:02:47;16.60;;;11.20;;
35306;SDS011;21420;52.196;21.416;2023-09-07T04:05:14;16.20;;;11.70;;
35306;SDS011;21420;52.196;21.416;2023-09-07T04:07:41;16.60;;;11.00;;
35306;SDS011;21420;52.196;21.416;2023-09-07T04:10:08;13.40;;;10.40;;
35306;SDS011;21420;52.196;21.416;2023-09-07T04:12:36;13.40;;;9.30;;
35306;SDS011;21420;52.196;21.416;2023-09-07T04:15:02;14.40;;;10.10;;
35306;SDS011;21420;52.196;21.416;2023-09-07T04:17:30;13.00;;;11.20;;
35306;SDS011;21420;52.196;21.416;2023-09-07T04:19:59;20.00;;;11.70;;
35306;SDS011;21420;52.196;21.416;2023-09-07T04:22:26;15.50;;;9.60;;
35306;SDS011;21420;52.196;21.416;2023-09-07T04:24:52;11.60;;;9.20;;
35306;SDS011;21420;52.196;21.416;2023-09-07T04:27:19;26.90;;;10.60;;
35306;SDS011;21420;52.196;21.416;2023-09-07T04:29:47;17.30;;;9.50;;
35306;SDS011;21420;52.196;21.416;2023-09-07T04:32:14;19.20;;;8.80;;
35306;SDS011;21420;52.196;21.416;2023-09-07T04:34:40;25.40;;;9.90;;
35306;SDS011;21420;52.196;21.416;2023-09-07T04:37:07;21.20;;;10.40;;
35306;SDS011;21420;52.196;21.416;2023-09-07T04:39:37;25.60;;;10.50;;
35306;SDS011;21420;52.196;21.416;2023-09-07T04:42:03;18.60;;;10.70;;
35306;SDS011;21420;52.196;21.416;2023-09-07T04:44:30;20.10;;;10.20;;
35306;SDS011;21420;52.196;21.416;2023-09-07T04:46:57;25.10;;;11.30;;
35306;SDS011;21420;52.196;21.416;2023-09-07T04:49:24;19.50;;;10.00;;
35306;SDS011;21420;52.196;21.416;2023-09-07T04:51:54;29.10;;;11.50;;
35306;SDS011;21420;52.196;21.416;2023-09-07T04:54:21;24.20;;;11.20;;
35306;SDS011;21420;52.196;21.416;2023-09-07T04:56:48;19.90;;;10.90;;
35306;SDS011;21420;52.196;21.416;2023-09-07T04:59:15;28.80;;;13.30;;
35306;SDS011;21420;52.196;21.416;2023-09-07T05:01:42;24.30;;;11.30;;
35306;SDS011;21420;52.196;21.416;2023-09-07T05:04:09;29.70;;;12.90;;
35306;SDS011;21420;52.196;21.416;2023-09-07T05:06:36;20.30;;;10.60;;
35306;SDS011;21420;52.196;21.416;2023-09-07T05:09:05;24.20;;;13.00;;
35306;SDS011;21420;52.196;21.416;2023-09-07T05:11:34;23.30;;;12.30;;
35306;SDS011;21420;52.196;21.416;2023-09-07T05:14:02;22.40;;;12.10;;
35306;SDS011;21420;52.196;21.416;2023-09-07T05:16:29;22.20;;;11.50;;
35306;SDS011;21420;52.196;21.416;2023-09-07T05:18:56;23.20;;;12.50;;
35306;SDS011;21420;52.196;21.416;2023-09-07T05:21:23;21.60;;;13.60;;
35306;SDS011;21420;52.196;21.416;2023-09-07T05:23:53;27.00;;;13.50;;
35306;SDS011;21420;52.196;21.416;2023-09-07T05:26:20;25.10;;;12.30;;
35306;SDS011;21420;52.196;21.416;2023-09-07T05:28:49;20.20;;;12.70;;
35306;SDS011;21420;52.196;21.416;2023-09-07T05:31:16;26.40;;;12.70;;
35306;SDS011;21420;52.196;21.416;2023-09-07T05:33:43;29.60;;;13.00;;
35306;SDS011;21420;52.196;21.416;2023-09-07T05:36:10;26.30;;;13.60;;
35306;SDS011;21420;52.196;21.416;2023-09-07T05:38:37;23.30;;;12.40;;
35306;SDS011;21420;52.196;21.416;2023-09-07T05:41:05;22.10;;;13.70;;
35306;SDS011;21420;52.196;21.416;2023-09-07T05:43:33;27.30;;;13.40;;
35306;SDS011;21420;52.196;21.416;2023-09-07T05:46:00;32.60;;;14.70;;
35306;SDS011;21420;52.196;21.416;2023-09-07T05:48:27;29.30;;;13.70;;
35306;SDS011;21420;52.196;21.416;2023-09-07T05:50:53;27.80;;;14.00;;
35306;SDS011;21420;52.196;21.416;2023-09-07T05:53:20;29.70;;;13.70;;
35306;SDS011;21420;52.196;21.416;2023-09-07T05:55:47;28.60;;;14.50;;
35306;SDS011;21420;52.196;21.416;2023-09-07T05:58:14;27.50;;;13.50;;
35306;SDS011;21420;52.196;21.416;2023-09-07T06:00:42;26.60;;;13.50;;
35306;SDS011;21420;52.196;21.416;2023-09-07T06:03:10;29.70;;;13.50;;
35306;SDS011;21420;52.196;21.416;2023-09-07T06:05:37;29.10;;;12.40;;
35306;SDS011;21420;52.196;21.416;2023-09-07T06:08:06;25.40;;;12.60;;
35306;SDS011;21420;52.196;21.416;2023-09-07T06:10:34;25.50;;;13.10;;
35306;SDS011;21420;52.196;21.416;2023-09-07T06:13:01;21.00;;;12.80;;
35306;SDS011;21420;52.196;21.416;2023-09-07T06:15:30;21.50;;;12.20;;
35306;SDS011;21420;52.196;21.416;2023-09-07T06:17:57;28.50;;;12.10;;
35306;SDS011;21420;52.196;21.416;2023-09-07T06:20:25;24.50;;;11.40;;
35306;SDS011;21420;52.196;21.416;2023-09-07T06:22:57;21.80;;;11.70;;
35306;SDS011;21420;52.196;21.416;2023-09-07T06:25:23;19.70;;;11.60;;
35306;SDS011;21420;52.196;21.416;2023-09-07T06:27:52;29.70;;;11.50;;
35306;SDS011;21420;52.196;21.416;2023-09-07T06:30:19;21.20;;;11.90;;
35306;SDS011;21420;52.196;21.416;2023-09-07T06:32:46;23.10;;;10.50;;
35306;SDS011;21420;52.196;21.416;2023-09-07T06:35:15;15.70;;;10.40;;
35306;SDS011;21420;52.196;21.416;2023-09-07T06:37:44;18.40;;;8.80;;
35306;SDS011;21420;52.196;21.416;2023-09-07T06:40:13;17.10;;;8.10;;
35306;SDS011;21420;52.196;21.416;2023-09-07T06:42:42;21.20;;;8.50;;
35306;SDS011;21420;52.196;21.416;2023-09-07T06:45:13;11.90;;;8.40;;
35306;SDS011;21420;52.196;21.416;2023-09-07T06:47:40;20.00;;;8.40;;
35306;SDS011;21420;52.196;21.416;2023-09-07T06:50:09;13.80;;;8.90;;
35306;SDS011;21420;52.196;21.416;2023-09-07T06:52:37;20.60;;;9.40;;
35306;SDS011;21420;52.196;21.416;2023-09-07T06:55:05;15.00;;;8.50;;
35306;SDS011;21420;52.196;21.416;2023-09-07T06:57:32;13.10;;;8.10;;
35306;SDS011;21420;52.196;21.416;2023-09-07T07:00:02;16.30;;;8.20;;
35306;SDS011;21420;52.196;21.416;2023-09-07T07:02:31;13.50;;;8.00;;
35306;SDS011;21420;52.196;21.416;2023-09-07T07:04:58;12.70;;;8.20;;
35306;SDS011;21420;52.196;21.416;2023-09-07T07:07:25;20.90;;;8.70;;
35306;SDS011;21420;52.196;21.416;2023-09-07T07:09:52;15.30;;;7.10;;
35306;SDS011;21420;52.196;21.416;2023-09-07T07:12:19;10.40;;;6.20;;
35306;SDS011;21420;52.196;21.416;2023-09-07T07:14:47;11.20;;;6.20;;
35306;SDS011;21420;52.196;21.416;2023-09-07T07:17:14;10.80;;;6.50;;
35306;SDS011;21420;52.196;21.416;2023-09-07T07:19:41;14.50;;;6.90;;
35306;SDS011;21420;52.196;21.416;2023-09-07T07:22:09;11.10;;;6.00;;
35306;SDS011;21420;52.196;21.416;2023-09-07T07:24:36;8.70;;;6.20;;
35306;SDS011;21420;52.196;21.416;2023-09-07T07:27:03;11.50;;;6.60;;
35306;SDS011;21420;52.196;21.416;2023-09-07T07:29:32;8.10;;;4.90;;
35306;SDS011;21420;52.196;21.416;2023-09-07T07:32:00;10.40;;;6.50;;
35306;SDS011;21420;52.196;21.416;2023-09-07T07:34:27;9.90;;;5.60;;
35306;SDS011;21420;52.196;21.416;2023-09-07T07:36:55;7.60;;;6.10;;
35306;SDS011;21420;52.196;21.416;2023-09-07T07:39:22;8.20;;;5.70;;
35306;SDS011;21420;52.196;21.416;2023-09-07T07:41:49;10.90;;;5.10;;
35306;SDS011;21420;52.196;21.416;2023-09-07T07:44:16;6.40;;;4.40;;
35306;SDS011;21420;52.196;21.416;2023-09-07T07:46:44;6.70;;;4.50;;
35306;SDS011;21420;52.196;21.416;2023-09-07T07:49:11;5.40;;;4.40;;
35306;SDS011;21420;52.196;21.416;2023-09-07T07:51:40;6.50;;;4.40;;
35306;SDS011;21420;52.196;21.416;2023-09-07T07:54:07;7.40;;;3.90;;
35306;SDS011;21420;52.196;21.416;2023-09-07T07:56:34;6.30;;;3.90;;
35306;SDS011;21420;52.196;21.416;2023-09-07T07:59:02;5.70;;;3.90;;
35306;SDS011;21420;52.196;21.416;2023-09-07T08:01:29;6.10;;;4.10;;
35306;SDS011;21420;52.196;21.416;2023-09-07T08:03:57;6.30;;;3.70;;
35306;SDS011;21420;52.196;21.416;2023-09-07T08:06:27;6.30;;;3.70;;
35306;SDS011;21420;52.196;21.416;2023-09-07T08:08:55;6.90;;;3.90;;
35306;SDS011;21420;52.196;21.416;2023-09-07T08:11:22;5.60;;;3.60;;
35306;SDS011;21420;52.196;21.416;2023-09-07T08:13:56;4.80;;;3.20;;
35306;SDS011;21420;52.196;21.416;2023-09-07T08:16:23;7.40;;;3.30;;
35306;SDS011;21420;52.196;21.416;2023-09-07T08:18:50;6.70;;;3.90;;
35306;SDS011;21420;52.196;21.416;2023-09-07T08:21:17;6.60;;;3.40;;
35306;SDS011;21420;52.196;21.416;2023-09-07T08:23:47;7.40;;;3.80;;
35306;SDS011;21420;52.196;21.416;2023-09-07T08:26:14;3.70;;;3.40;;
35306;SDS011;21420;52.196;21.416;2023-09-07T08:28:42;6.30;;;4.10;;
35306;SDS011;21420;52.196;21.416;2023-09-07T08:31:13;4.80;;;3.20;;
35306;SDS011;21420;52.196;21.416;2023-09-07T08:33:48;5.30;;;3.30;;
35306;SDS011;21420;52.196;21.416;2023-09-07T08:36:18;4.80;;;3.60;;
35306;SDS011;21420;52.196;21.416;2023-09-07T08:38:45;4.00;;;3.50;;
35306;SDS011;21420;52.196;21.416;2023-09-07T08:41:11;5.10;;;3.40;;
35306;SDS011;21420;52.196;21.416;2023-09-07T08:43:44;5.30;;;3.90;;
35306;SDS011;21420;52.196;21.416;2023-09-07T08:48:52;6.70;;;3.80;;
35306;SDS011;21420;52.196;21.416;2023-09-07T08:51:24;4.60;;;3.50;;
35306;SDS011;21420;52.196;21.416;2023-09-07T08:53:54;4.90;;;3.50;;
35306;SDS011;21420;52.196;21.416;2023-09-07T08:56:23;4.70;;;3.50;;
35306;SDS011;21420;52.196;21.416;2023-09-07T09:01:18;3.90;;;3.30;;
35306;SDS011;21420;52.196;21.416;2023-09-07T09:03:48;9.80;;;3.60;;
35306;SDS011;21420;52.196;21.416;2023-09-07T09:06:16;4.90;;;3.00;;
35306;SDS011;21420;52.196;21.416;2023-09-07T09:08:49;3.70;;;3.20;;
35306;SDS011;21420;52.196;21.416;2023-09-07T09:11:17;4.40;;;3.20;;
35306;SDS011;21420;52.196;21.416;2023-09-07T09:13:46;4.00;;;3.30;;
35306;SDS011;21420;52.196;21.416;2023-09-07T09:16:14;8.60;;;3.30;;
35306;SDS011;21420;52.196;21.416;2023-09-07T09:18:51;3.40;;;3.00;;
35306;SDS011;21420;52.196;21.416;2023-09-07T09:21:19;4.90;;;3.00;;
35306;SDS011;21420;52.196;21.416;2023-09-07T09:23:48;5.30;;;3.10;;
35306;SDS011;21420;52.196;21.416;2023-09-07T09:26:24;4.40;;;3.20;;
35306;SDS011;21420;52.196;21.416;2023-09-07T09:28:55;5.00;;;3.00;;
35306;SDS011;21420;52.196;21.416;2023-09-07T09:31:23;3.30;;;3.00;;
35306;SDS011;21420;52.196;21.416;2023-09-07T09:33:51;7.70;;;3.20;;
35306;SDS011;21420;52.196;21.416;2023-09-07T09:36:19;3.40;;;3.00;;
35306;SDS011;21420;52.196;21.416;2023-09-07T09:38:50;5.20;;;3.20;;
35306;SDS011;21420;52.196;21.416;2023-09-07T09:41:20;3.90;;;2.80;;
35306;SDS011;21420;52.196;21.416;2023-09-07T09:43:47;3.20;;;2.90;;
35306;SDS011;21420;52.196;21.416;2023-09-07T09:46:18;2.80;;;2.60;;
35306;SDS011;21420;52.196;21.416;2023-09-07T09:48:45;5.00;;;2.70;;
35306;SDS011;21420;52.196;21.416;2023-09-07T09:53:41;4.80;;;3.10;;
35306;SDS011;21420;52.196;21.416;2023-09-07T09:56:09;3.90;;;2.70;;
35306;SDS011;21420;52.196;21.416;2023-09-07T09:58:36;5.90;;;2.80;;
35306;SDS011;21420;52.196;21.416;2023-09-07T10:01:03;3.80;;;2.50;;
35306;SDS011;21420;52.196;21.416;2023-09-07T10:03:33;5.10;;;2.60;;
35306;SDS011;21420;52.196;21.416;2023-09-07T10:06:08;4.00;;;2.40;;
35306;SDS011;21420;52.196;21.416;2023-09-07T10:08:35;4.10;;;2.30;;
35306;SDS011;21420;52.196;21.416;2023-09-07T10:11:09;1.80;;;1.70;;
35306;SDS011;21420;52.196;21.416;2023-09-07T10:13:36;5.80;;;2.30;;
35306;SDS011;21420;52.196;21.416;2023-09-07T10:16:04;3.90;;;2.40;;
35306;SDS011;21420;52.196;21.416;2023-09-07T10:18:37;2.30;;;2.20;;
35306;SDS011;21420;52.196;21.416;2023-09-07T10:21:05;2.30;;;1.70;;
35306;SDS011;21420;52.196;21.416;2023-09-07T10:23:36;2.30;;;2.00;;
35306;SDS011;21420;52.196;21.416;2023-09-07T10:26:13;2.30;;;2.00;;
35306;SDS011;21420;52.196;21.416;2023-09-07T10:28:42;3.40;;;2.00;;
35306;SDS011;21420;52.196;21.416;2023-09-07T10:31:14;2.40;;;2.10;;
35306;SDS011;21420;52.196;21.416;2023-09-07T10:33:45;2.10;;;1.90;;
35306;SDS011;21420;52.196;21.416;2023-09-07T10:38:47;2.20;;;2.00;;
35306;SDS011;21420;52.196;21.416;2023-09-07T10:41:15;2.10;;;1.80;;
35306;SDS011;21420;52.196;21.416;2023-09-07T10:43:48;2.40;;;2.10;;
35306;SDS011;21420;52.196;21.416;2023-09-07T10:46:20;4.50;;;1.90;;
35306;SDS011;21420;52.196;21.416;2023-09-07T10:48:51;2.10;;;1.90;;
35306;SDS011;21420;52.196;21.416;2023-09-07T10:51:19;2.30;;;2.10;;
35306;SDS011;21420;52.196;21.416;2023-09-07T10:53:47;2.30;;;2.10;;
35306;SDS011;21420;52.196;21.416;2023-09-07T10:56:14;2.50;;;1.80;;
35306;SDS011;21420;52.196;21.416;2023-09-07T10:58:41;3.60;;;2.40;;
35306;SDS011;21420;52.196;21.416;2023-09-07T11:01:09;3.50;;;2.50;;
35306;SDS011;21420;52.196;21.416;2023-09-07T11:03:36;4.70;;;2.80;;
35306;SDS011;21420;52.196;21.416;2023-09-07T11:08:37;3.70;;;2.60;;
35306;SDS011;21420;52.196;21.416;2023-09-07T11:11:04;4.20;;;2.60;;
35306;SDS011;21420;52.196;21.416;2023-09-07T11:13:34;2.30;;;2.10;;
35306;SDS011;21420;52.196;21.416;2023-09-07T11:16:02;4.70;;;2.20;;
35306;SDS011;21420;52.196;21.416;2023-09-07T11:18:30;3.20;;;1.90;;
35306;SDS011;21420;52.196;21.416;2023-09-07T11:20:57;2.40;;;2.00;;
35306;SDS011;21420;52.196;21.416;2023-09-07T11:23:26;4.30;;;1.90;;
35306;SDS011;21420;52.196;21.416;2023-09-07T11:25:53;4.90;;;2.30;;
35306;SDS011;21420;52.196;21.416;2023-09-07T11:28:19;1.80;;;1.70;;
35306;SDS011;21420;52.196;21.416;2023-09-07T11:30:49;2.10;;;1.80;;
35306;SDS011;21420;52.196;21.416;2023-09-07T11:33:23;2.10;;;1.80;;
35306;SDS011;21420;52.196;21.416;2023-09-07T11:35:52;1.90;;;1.60;;
35306;SDS011;21420;52.196;21.416;2023-09-07T11:38:22;2.30;;;1.60;;
35306;SDS011;21420;52.196;21.416;2023-09-07T11:40:49;1.90;;;1.70;;
35306;SDS011;21420;52.196;21.416;2023-09-07T11:43:16;1.60;;;1.40;;
35306;SDS011;21420;52.196;21.416;2023-09-07T11:45:47;2.40;;;1.50;;
35306;SDS011;21420;52.196;21.416;2023-09-07T11:48:14;1.90;;;1.80;;
35306;SDS011;21420;52.196;21.416;2023-09-07T11:50:41;2.00;;;1.80;;
35306;SDS011;21420;52.196;21.416;2023-09-07T11:53:08;2.30;;;1.80;;
35306;SDS011;21420;52.196;21.416;2023-09-07T11:55:35;3.30;;;1.60;;
35306;SDS011;21420;52.196;21.416;2023-09-07T11:58:03;2.10;;;1.80;;
35306;SDS011;21420;52.196;21.416;2023-09-07T12:00:33;4.50;;;1.90;;
35306;SDS011;21420;52.196;21.416;2023-09-07T12:03:00;2.30;;;1.50;;
35306;SDS011;21420;52.196;21.416;2023-09-07T12:05:27;1.70;;;1.60;;
35306;SDS011;21420;52.196;21.416;2023-09-07T12:07:54;2.50;;;1.80;;
35306;SDS011;21420;52.196;21.416;2023-09-07T12:10:21;1.50;;;1.40;;
35306;SDS011;21420;52.196;21.416;2023-09-07T12:12:48;3.00;;;1.70;;
35306;SDS011;21420;52.196;21.416;2023-09-07T12:15:14;2.00;;;1.50;;
35306;SDS011;21420;52.196;21.416;2023-09-07T12:17:41;2.40;;;1.80;;
35306;SDS011;21420;52.196;21.416;2023-09-07T12:20:08;2.40;;;1.80;;
35306;SDS011;21420;52.196;21.416;2023-09-07T12:22:37;3.20;;;1.80;;
35306;SDS011;21420;52.196;21.416;2023-09-07T12:25:04;7.40;;;1.90;;
35306;SDS011;21420;52.196;21.416;2023-09-07T12:27:41;6.90;;;2.00;;
35306;SDS011;21420;52.196;21.416;2023-09-07T12:30:17;2.50;;;2.10;;
35306;SDS011;21420;52.196;21.416;2023-09-07T12:32:47;2.10;;;1.70;;
35306;SDS011;21420;52.196;21.416;2023-09-07T12:35:15;3.30;;;1.90;;
35306;SDS011;21420;52.196;21.416;2023-09-07T12:37:43;2.20;;;2.00;;
35306;SDS011;21420;52.196;21.416;2023-09-07T12:40:10;2.90;;;1.80;;
35306;SDS011;21420;52.196;21.416;2023-09-07T12:42:40;3.60;;;1.90;;
35306;SDS011;21420;52.196;21.416;2023-09-07T12:45:08;2.20;;;1.90;;
35306;SDS011;21420;52.196;21.416;2023-09-07T12:47:38;2.60;;;2.10;;
35306;SDS011;21420;52.196;21.416;2023-09-07T12:50:07;1.90;;;1.80;;
35306;SDS011;21420;52.196;21.416;2023-09-07T12:52:35;2.20;;;1.90;;
35306;SDS011;21420;52.196;21.416;2023-09-07T12:55:06;2.80;;;2.60;;
35306;SDS011;21420;52.196;21.416;2023-09-07T12:57:34;2.10;;;1.90;;
35306;SDS011;21420;52.196;21.416;2023-09-07T13:00:03;3.40;;;1.90;;
35306;SDS011;21420;52.196;21.416;2023-09-07T13:02:32;4.90;;;2.20;;
35306;SDS011;21420;52.196;21.416;2023-09-07T13:04:59;2.50;;;2.00;;
35306;SDS011;21420;52.196;21.416;2023-09-07T13:07:26;4.30;;;2.10;;
35306;SDS011;21420;52.196;21.416;2023-09-07T13:09:53;2.10;;;1.90;;
35306;SDS011;21420;52.196;21.416;2023-09-07T13:12:21;2.70;;;2.30;;
35306;SDS011;21420;52.196;21.416;2023-09-07T13:14:48;2.70;;;1.90;;
35306;SDS011;21420;52.196;21.416;2023-09-07T13:17:15;2.40;;;2.20;;
35306;SDS011;21420;52.196;21.416;2023-09-07T13:19:42;3.90;;;2.30;;
35306;SDS011;21420;52.196;21.416;2023-09-07T13:22:09;2.60;;;2.00;;
35306;SDS011;21420;52.196;21.416;2023-09-07T13:24:36;2.50;;;2.10;;
35306;SDS011;21420;52.196;21.416;2023-09-07T13:27:09;3.40;;;2.00;;
35306;SDS011;21420;52.196;21.416;2023-09-07T13:29:36;1.70;;;1.50;;
35306;SDS011;21420;52.196;21.416;2023-09-07T13:32:03;2.20;;;1.90;;
35306;SDS011;21420;52.196;21.416;2023-09-07T13:34:31;4.40;;;2.20;;
35306;SDS011;21420;52.196;21.416;2023-09-07T13:36:57;2.70;;;1.90;;
35306;SDS011;21420;52.196;21.416;2023-09-07T13:39:24;2.80;;;2.10;;
35306;SDS011;21420;52.196;21.416;2023-09-07T13:41:51;3.00;;;2.40;;
35306;SDS011;21420;52.196;21.416;2023-09-07T13:44:18;4.20;;;2.30;;
35306;SDS011;21420;52.196;21.416;2023-09-07T13:46:45;2.50;;;1.50;;
35306;SDS011;21420;52.196;21.416;2023-09-07T13:49:12;3.10;;;2.50;;
35306;SDS011;21420;52.196;21.416;2023-09-07T13:51:40;2.20;;;2.00;;
35306;SDS011;21420;52.196;21.416;2023-09-07T13:54:07;5.30;;;2.50;;
35306;SDS011;21420;52.196;21.416;2023-09-07T13:56:35;1.80;;;1.70;;
35306;SDS011;21420;52.196;21.416;2023-09-07T13:59:06;3.80;;;2.20;;
35306;SDS011;21420;52.196;21.416;2023-09-07T14:01:33;2.10;;;1.90;;
35306;SDS011;21420;52.196;21.416;2023-09-07T14:04:00;3.90;;;2.40;;
35306;SDS011;21420;52.196;21.416;2023-09-07T14:06:26;3.30;;;2.30;;
35306;SDS011;21420;52.196;21.416;2023-09-07T14:08:53;6.60;;;2.20;;
35306;SDS011;21420;52.196;21.416;2023-09-07T14:11:20;2.90;;;2.00;;
35306;SDS011;21420;52.196;21.416;2023-09-07T14:13:49;6.30;;;2.50;;
35306;SDS011;21420;52.196;21.416;2023-09-07T14:16:21;4.60;;;2.20;;
35306;SDS011;21420;52.196;21.416;2023-09-07T14:18:49;5.10;;;2.40;;
35306;SDS011;21420;52.196;21.416;2023-09-07T14:21:17;5.10;;;2.20;;
35306;SDS011;21420;52.196;21.416;2023-09-07T14:23:44;3.10;;;2.80;;
35306;SDS011;21420;52.196;21.416;2023-09-07T14:26:12;3.30;;;2.20;;
35306;SDS011;21420;52.196;21.416;2023-09-07T14:28:39;3.30;;;2.50;;
35306;SDS011;21420;52.196;21.416;2023-09-07T14:31:06;2.90;;;2.60;;
35306;SDS011;21420;52.196;21.416;2023-09-07T14:33:35;4.50;;;2.80;;
35306;SDS011;21420;52.196;21.416;2023-09-07T14:36:08;7.60;;;2.60;;
35306;SDS011;21420;52.196;21.416;2023-09-07T14:38:35;3.60;;;2.60;;
35306;SDS011;21420;52.196;21.416;2023-09-07T14:41:08;5.00;;;2.50;;